createdAt,value
2022-11-29T00:01:43.522Z,8.50
2022-11-29T00:04:13.163Z,8.50
2022-11-29T00:06:41.821Z,8.40
2022-11-29T00:09:13.762Z,8.50
2022-11-29T00:12:01.127Z,8.50
2022-11-29T00:14:30.497Z,8.50
2022-11-29T00:17:02.661Z,8.50
2022-11-29T00:19:32.046Z,8.60
2022-11-29T00:22:01.140Z,8.60
2022-11-29T00:24:31.763Z,8.60
2022-11-29T00:27:01.053Z,8.60
2022-11-29T00:29:31.202Z,8.60
2022-11-29T00:32:01.480Z,8.60
2022-11-29T00:34:30.786Z,8.60
2022-11-29T00:36:59.431Z,8.60
2022-11-29T00:39:28.696Z,8.60
2022-11-29T00:41:57.349Z,8.60
2022-11-29T00:44:26.027Z,8.60
2022-11-29T00:46:54.641Z,8.60
2022-11-29T00:49:25.035Z,8.70
2022-11-29T00:51:53.656Z,8.60
2022-11-29T00:54:22.355Z,8.60
2022-11-29T00:56:50.894Z,8.60
2022-11-29T00:59:19.701Z,8.60
2022-11-29T01:01:48.458Z,8.60
2022-11-29T01:04:16.980Z,8.60
2022-11-29T01:06:46.985Z,8.50
2022-11-29T01:09:15.980Z,8.60
2022-11-29T01:11:44.602Z,8.60
2022-11-29T01:14:14.530Z,8.60
2022-11-29T01:16:43.135Z,8.60
2022-11-29T01:19:11.769Z,8.60
2022-11-29T01:21:40.330Z,8.60
2022-11-29T01:24:10.782Z,8.60
2022-11-29T01:26:39.257Z,8.60
2022-11-29T01:29:07.953Z,8.60
2022-11-29T01:31:37.167Z,8.60
2022-11-29T01:34:07.946Z,8.60
2022-11-29T01:36:36.802Z,8.60
2022-11-29T01:39:07.069Z,8.60
2022-11-29T01:41:38.869Z,8.60
2022-11-29T01:44:29.313Z,8.60
2022-11-29T01:46:58.577Z,8.60
2022-11-29T01:49:31.733Z,8.60
2022-11-29T01:52:04.437Z,8.60
2022-11-29T01:54:36.444Z,8.70
2022-11-29T01:57:08.733Z,8.70
2022-11-29T01:59:40.829Z,8.70
2022-11-29T02:02:15.067Z,8.70
2022-11-29T02:04:46.215Z,8.70
2022-11-29T02:07:15.461Z,8.70
2022-11-29T02:09:44.032Z,8.70
2022-11-29T02:12:24.153Z,8.70
2022-11-29T02:15:10.590Z,8.70
2022-11-29T02:17:53.580Z,8.70
2022-11-29T02:20:43.739Z,8.60
2022-11-29T02:23:33.505Z,8.60
2022-11-29T02:26:13.173Z,8.70
2022-11-29T02:29:17.942Z,8.60
2022-11-29T02:32:32.367Z,8.60
2022-11-29T02:35:18.580Z,8.60
2022-11-29T02:38:05.911Z,8.50
2022-11-29T02:40:51.553Z,8.60
2022-11-29T02:43:43.877Z,8.60
2022-11-29T02:46:30.207Z,8.60
2022-11-29T02:49:07.800Z,8.60
2022-11-29T02:51:44.089Z,8.60
2022-11-29T02:54:20.629Z,8.60
2022-11-29T02:56:55.599Z,8.70
2022-11-29T02:59:41.456Z,8.70
2022-11-29T03:02:21.498Z,8.70
2022-11-29T03:04:56.521Z,8.70
2022-11-29T03:07:38.074Z,8.60
2022-11-29T03:10:16.694Z,8.60
2022-11-29T03:12:48.956Z,8.60
2022-11-29T03:15:28.522Z,8.60
2022-11-29T03:18:25.633Z,8.60
2022-11-29T03:21:06.380Z,8.70
2022-11-29T03:23:39.247Z,8.70
2022-11-29T03:26:12.615Z,8.70
2022-11-29T03:28:45.694Z,8.70
2022-11-29T03:31:22.091Z,8.70
2022-11-29T03:33:56.071Z,8.70
2022-11-29T03:36:35.881Z,8.60
2022-11-29T03:39:10.972Z,8.70
2022-11-29T03:41:44.522Z,8.60
2022-11-29T03:44:17.399Z,8.60
2022-11-29T03:46:53.984Z,8.60
2022-11-29T03:49:28.060Z,8.60
2022-11-29T03:52:04.371Z,8.50
2022-11-29T03:54:44.397Z,8.50
2022-11-29T03:57:19.451Z,8.50
2022-11-29T03:59:57.133Z,8.60
2022-11-29T04:03:03.184Z,8.60
2022-11-29T04:06:07.159Z,8.60
2022-11-29T04:08:59.462Z,8.60
2022-11-29T04:11:55.973Z,8.60
2022-11-29T04:14:52.606Z,8.60
2022-11-29T04:17:47.337Z,8.60
2022-11-29T04:20:46.709Z,8.60
2022-11-29T04:24:05.135Z,8.60
2022-11-29T04:27:09.028Z,8.50
2022-11-29T04:30:05.094Z,8.50
2022-11-29T04:33:05.459Z,8.50
2022-11-29T04:36:15.281Z,8.50
2022-11-29T04:39:16.912Z,8.50
2022-11-29T04:42:06.746Z,8.50
2022-11-29T04:44:55.679Z,8.40
2022-11-29T04:47:53.269Z,8.40
2022-11-29T04:50:33.979Z,8.40
2022-11-29T04:53:26.096Z,8.40
2022-11-29T04:56:06.631Z,8.30
2022-11-29T04:58:39.584Z,8.30
2022-11-29T05:01:19.157Z,8.30
2022-11-29T05:03:56.825Z,8.30
2022-11-29T05:06:33.885Z,8.30
2022-11-29T05:09:12.098Z,8.30
2022-11-29T05:11:51.560Z,8.20
2022-11-29T05:14:32.153Z,8.20
2022-11-29T05:17:26.134Z,8.20
2022-11-29T05:20:05.664Z,8.20
2022-11-29T05:22:41.751Z,8.20
2022-11-29T05:25:29.160Z,8.20
2022-11-29T05:28:09.690Z,8.20
2022-11-29T05:31:03.655Z,8.20
2022-11-29T05:33:49.911Z,8.20
2022-11-29T05:36:26.390Z,8.20
2022-11-29T05:39:13.942Z,8.20
2022-11-29T05:41:53.702Z,8.20
2022-11-29T05:44:31.146Z,8.10
2022-11-29T05:47:02.142Z,8.10
2022-11-29T05:49:42.510Z,8.10
2022-11-29T05:52:33.165Z,8.10
2022-11-29T05:55:18.584Z,8.10
2022-11-29T05:57:57.389Z,8.10
2022-11-29T06:00:28.883Z,8.10
2022-11-29T06:03:03.773Z,8.10
2022-11-29T06:05:38.670Z,8.10
2022-11-29T06:08:12.814Z,8.10
2022-11-29T06:10:53.184Z,8.10
2022-11-29T06:13:32.411Z,8.10
2022-11-29T06:16:30.605Z,8.00
2022-11-29T06:19:39.306Z,8.10
2022-11-29T06:22:24.761Z,8.10
2022-11-29T06:25:06.998Z,8.10
2022-11-29T06:27:50.988Z,8.10
2022-11-29T06:30:24.435Z,8.10
2022-11-29T06:32:56.222Z,8.10
2022-11-29T06:35:40.167Z,8.10
2022-11-29T06:38:18.506Z,8.10
2022-11-29T06:40:47.536Z,8.10
2022-11-29T06:43:16.905Z,8.10
2022-11-29T06:45:50.479Z,8.10
2022-11-29T06:48:23.265Z,8.10
2022-11-29T06:51:00.687Z,8.10
2022-11-29T06:53:42.688Z,8.10
2022-11-29T06:56:22.994Z,8.10
2022-11-29T06:59:04.144Z,8.10
2022-11-29T07:01:41.327Z,8.00
2022-11-29T07:04:48.802Z,8.00
2022-11-29T07:07:21.448Z,8.00
2022-11-29T07:09:54.890Z,8.00
2022-11-29T07:12:24.147Z,8.00
2022-11-29T07:14:53.293Z,8.00
2022-11-29T07:17:30.194Z,8.10
2022-11-29T07:20:05.496Z,8.10
2022-11-29T07:22:46.571Z,8.10
2022-11-29T07:25:25.760Z,8.10
2022-11-29T07:28:03.307Z,8.00
2022-11-29T07:30:40.756Z,8.00
2022-11-29T07:33:18.649Z,8.10
2022-11-29T07:35:55.042Z,8.10
2022-11-29T07:38:39.275Z,8.10
2022-11-29T07:41:16.806Z,8.10
2022-11-29T07:43:53.662Z,8.00
2022-11-29T07:46:22.219Z,8.00
2022-11-29T07:48:50.688Z,8.00
2022-11-29T07:51:19.471Z,8.00
2022-11-29T07:53:48.084Z,8.10
2022-11-29T07:56:18.140Z,8.10
2022-11-29T07:58:47.079Z,8.10
2022-11-29T08:01:15.884Z,8.10
2022-11-29T08:03:44.551Z,8.10
2022-11-29T08:06:13.231Z,8.10
2022-11-29T08:08:44.181Z,8.10
2022-11-29T08:11:14.169Z,8.20
2022-11-29T08:13:44.165Z,8.10
2022-11-29T08:16:17.993Z,8.10
2022-11-29T08:18:46.924Z,8.20
2022-11-29T08:21:18.289Z,8.10
2022-11-29T08:23:47.180Z,8.20
2022-11-29T08:26:16.991Z,8.20
2022-11-29T08:28:47.074Z,8.20
2022-11-29T08:31:15.893Z,8.20
2022-11-29T08:33:45.452Z,8.20
2022-11-29T08:36:16.164Z,8.20
2022-11-29T08:38:45.214Z,8.30
2022-11-29T08:41:16.009Z,8.30
2022-11-29T08:43:46.580Z,8.30
2022-11-29T08:46:18.518Z,8.20
2022-11-29T08:48:48.267Z,8.20
2022-11-29T08:51:17.400Z,8.20
2022-11-29T08:53:46.548Z,8.30
2022-11-29T08:57:04.394Z,8.30
2022-11-29T08:59:07.591Z,8.40
2022-11-29T09:01:36.308Z,8.40
2022-11-29T09:04:07.146Z,8.40
2022-11-29T09:06:40.218Z,8.50
2022-11-29T09:09:09.288Z,8.50
2022-11-29T09:11:38.223Z,8.50
2022-11-29T09:14:10.437Z,8.50
2022-11-29T09:16:40.038Z,8.60
2022-11-29T09:19:09.229Z,8.60
2022-11-29T09:21:38.042Z,8.60
2022-11-29T09:24:08.287Z,8.60
2022-11-29T09:26:40.920Z,8.60
2022-11-29T09:29:12.122Z,8.60
2022-11-29T09:31:40.894Z,8.70
2022-11-29T09:34:09.508Z,8.70
2022-11-29T09:36:38.395Z,8.70
2022-11-29T09:39:07.160Z,8.70
2022-11-29T09:42:09.801Z,8.80
2022-11-29T09:44:52.692Z,8.80
2022-11-29T09:47:33.032Z,8.80
2022-11-29T09:50:16.855Z,8.80
2022-11-29T09:52:53.612Z,8.90
2022-11-29T09:55:40.224Z,8.90
2022-11-29T09:58:15.037Z,8.90
2022-11-29T10:00:49.655Z,8.90
2022-11-29T10:03:25.615Z,8.90
2022-11-29T10:06:00.251Z,8.80
2022-11-29T10:08:35.118Z,8.80
2022-11-29T10:11:20.595Z,8.80
2022-11-29T10:13:53.065Z,8.80
2022-11-29T10:16:29.725Z,8.80
2022-11-29T10:19:05.157Z,8.80
2022-11-29T10:21:37.891Z,8.80
2022-11-29T10:24:13.555Z,8.80
2022-11-29T10:26:43.715Z,8.80
2022-11-29T10:29:15.363Z,8.80
2022-11-29T10:31:49.960Z,8.90
2022-11-29T10:34:21.354Z,8.90
2022-11-29T10:36:52.544Z,8.80
2022-11-29T10:39:24.575Z,8.80
2022-11-29T10:41:57.217Z,8.90
2022-11-29T10:44:26.803Z,8.80
2022-11-29T10:46:57.630Z,8.90
2022-11-29T10:49:29.531Z,8.90
2022-11-29T10:51:58.502Z,8.80
2022-11-29T10:54:36.078Z,8.90
2022-11-29T10:57:10.937Z,8.90
2022-11-29T10:59:39.613Z,8.90
2022-11-29T11:02:19.140Z,8.80
2022-11-29T11:04:50.226Z,8.90
2022-11-29T11:07:28.228Z,8.90
2022-11-29T11:09:58.422Z,8.90
2022-11-29T11:12:30.201Z,8.80
2022-11-29T11:15:28.294Z,8.80
2022-11-29T11:18:00.583Z,8.80
2022-11-29T11:20:31.869Z,8.80
2022-11-29T11:23:03.798Z,8.90
2022-11-29T11:25:34.776Z,9.00
2022-11-29T11:28:18.250Z,8.90
2022-11-29T11:30:53.688Z,9.00
2022-11-29T11:33:27.590Z,9.00
2022-11-29T11:36:05.053Z,9.00
2022-11-29T11:38:34.285Z,9.00
2022-11-29T11:41:07.011Z,8.90
2022-11-29T11:43:36.503Z,8.90
2022-11-29T11:46:08.117Z,8.90
2022-11-29T11:48:42.161Z,8.90
2022-11-29T11:51:26.129Z,8.80
2022-11-29T11:53:58.585Z,8.80
2022-11-29T11:56:37.159Z,8.80
2022-11-29T11:59:07.617Z,8.80
2022-11-29T12:01:40.425Z,8.80
2022-11-29T12:04:16.259Z,8.80
2022-11-29T12:06:54.772Z,8.80
2022-11-29T12:09:34.948Z,8.90
2022-11-29T12:12:15.595Z,8.90
2022-11-29T12:14:53.180Z,8.90
2022-11-29T12:17:29.973Z,8.90
2022-11-29T12:20:14.628Z,8.90
2022-11-29T12:22:49.637Z,8.90
2022-11-29T12:25:22.801Z,8.90
2022-11-29T12:27:51.796Z,8.90
2022-11-29T12:30:21.500Z,9.00
2022-11-29T12:33:08.664Z,9.00
2022-11-29T12:35:55.485Z,9.00
2022-11-29T12:38:46.527Z,8.90
2022-11-29T12:41:30.910Z,9.00
2022-11-29T12:44:11.383Z,9.00
2022-11-29T12:46:40.919Z,9.00
2022-11-29T12:49:19.704Z,9.00
2022-11-29T12:51:57.222Z,8.90
2022-11-29T12:54:47.682Z,8.80
2022-11-29T12:57:23.838Z,8.80
2022-11-29T13:00:06.359Z,8.90
2022-11-29T13:02:46.853Z,9.10
2022-11-29T13:05:25.281Z,9.10
2022-11-29T13:08:05.694Z,9.20
2022-11-29T13:10:49.009Z,9.30
2022-11-29T13:13:24.138Z,9.30
2022-11-29T13:16:00.398Z,9.30
2022-11-29T13:18:35.777Z,9.40
2022-11-29T13:21:11.941Z,9.40
2022-11-29T13:26:41.366Z,9.50
2022-11-29T13:29:16.258Z,9.50
2022-11-29T13:31:47.081Z,9.50
2022-11-29T13:34:21.078Z,9.50
2022-11-29T13:37:06.225Z,9.50
2022-11-29T13:39:48.613Z,9.50
2022-11-29T13:42:22.738Z,9.50
2022-11-29T13:44:58.653Z,9.40
2022-11-29T13:47:27.457Z,9.40
2022-11-29T13:50:02.811Z,9.40
2022-11-29T13:52:43.540Z,9.40
2022-11-29T13:55:29.399Z,9.40
2022-11-29T13:58:16.665Z,9.40
2022-11-29T14:00:53.302Z,9.40
2022-11-29T14:03:35.757Z,9.40
2022-11-29T14:06:18.682Z,9.30
2022-11-29T14:09:19.061Z,9.40
2022-11-29T14:11:54.928Z,9.30
2022-11-29T14:14:31.545Z,9.30
2022-11-29T14:17:09.985Z,9.30
2022-11-29T14:19:42.549Z,9.30
2022-11-29T14:22:32.691Z,9.30
2022-11-29T14:25:50.602Z,9.20
2022-11-29T14:28:39.282Z,9.20
2022-11-29T14:31:09.046Z,9.20
2022-11-29T14:33:54.121Z,9.20
2022-11-29T14:36:50.867Z,9.20
2022-11-29T14:39:36.010Z,9.20
2022-11-29T14:42:18.246Z,9.20
2022-11-29T14:44:54.893Z,9.20
2022-11-29T14:47:30.344Z,9.20
2022-11-29T14:50:04.341Z,9.20
2022-11-29T14:52:37.237Z,9.20
2022-11-29T14:55:10.629Z,9.20
2022-11-29T14:58:14.166Z,9.20
2022-11-29T15:01:03.831Z,9.20
2022-11-29T15:03:52.705Z,9.20
2022-11-29T15:06:29.358Z,9.20
2022-11-29T15:09:06.267Z,9.10
2022-11-29T15:11:52.162Z,9.10
2022-11-29T15:14:28.794Z,9.10
2022-11-29T15:17:24.917Z,9.10
2022-11-29T15:20:14.784Z,9.00
2022-11-29T15:22:53.131Z,9.00
2022-11-29T15:25:26.749Z,9.00
2022-11-29T15:28:01.444Z,9.00
2022-11-29T15:30:37.894Z,9.00
2022-11-29T15:33:10.502Z,9.00
2022-11-29T15:35:39.759Z,9.00
2022-11-29T15:38:16.081Z,9.00
2022-11-29T15:40:56.001Z,9.00
2022-11-29T15:43:28.074Z,9.00
2022-11-29T15:45:58.576Z,9.00
2022-11-29T15:48:30.604Z,8.90
2022-11-29T15:51:10.011Z,8.90
2022-11-29T15:53:42.602Z,8.90
2022-11-29T15:56:26.101Z,8.90
2022-11-29T15:59:02.336Z,8.90
2022-11-29T16:01:34.861Z,8.80
2022-11-29T16:04:15.406Z,8.80
2022-11-29T16:06:46.669Z,8.80
2022-11-29T16:09:20.345Z,8.70
2022-11-29T16:11:53.599Z,8.80
2022-11-29T16:14:25.919Z,8.80
2022-11-29T16:17:00.515Z,8.80
2022-11-29T16:19:38.360Z,8.70
2022-11-29T16:22:16.752Z,8.70
2022-11-29T16:25:03.142Z,8.70
2022-11-29T16:27:36.024Z,8.70
2022-11-29T16:30:27.325Z,8.70
2022-11-29T16:32:58.155Z,8.70
2022-11-29T16:35:39.865Z,8.70
2022-11-29T16:38:20.147Z,8.70
2022-11-29T16:41:08.135Z,8.60
2022-11-29T16:43:54.482Z,8.60
2022-11-29T16:46:45.282Z,8.60
2022-11-29T16:49:37.921Z,8.60
2022-11-29T16:52:27.089Z,8.60
2022-11-29T16:54:57.769Z,8.60
2022-11-29T16:57:30.126Z,8.60
2022-11-29T16:59:59.655Z,8.60
2022-11-29T17:02:31.270Z,8.50
2022-11-29T17:05:02.490Z,8.50
2022-11-29T17:07:37.310Z,8.50
2022-11-29T17:10:20.301Z,8.50
2022-11-29T17:12:54.023Z,8.50
2022-11-29T17:15:31.281Z,8.50
2022-11-29T17:18:01.635Z,8.50
2022-11-29T17:20:32.363Z,8.50
2022-11-29T17:23:03.344Z,8.50
2022-11-29T17:25:33.354Z,8.50
2022-11-29T17:28:05.434Z,8.50
2022-11-29T17:30:35.504Z,8.50
2022-11-29T17:33:08.181Z,8.50
2022-11-29T17:35:38.075Z,8.50
2022-11-29T17:38:12.793Z,8.50
2022-11-29T17:40:42.501Z,8.50
2022-11-29T17:43:11.998Z,8.50
2022-11-29T17:45:41.535Z,8.50
2022-11-29T17:48:13.320Z,8.50
2022-11-29T17:50:43.283Z,8.50
2022-11-29T17:53:13.891Z,8.50
2022-11-29T17:55:43.525Z,8.50
2022-11-29T17:58:14.426Z,8.50
2022-11-29T18:00:45.911Z,8.50
2022-11-29T18:03:16.020Z,8.40
2022-11-29T18:05:46.992Z,8.40
2022-11-29T18:08:18.855Z,8.40
2022-11-29T18:10:48.203Z,8.50
2022-11-29T18:13:17.743Z,8.50
2022-11-29T18:15:49.270Z,8.50
2022-11-29T18:18:23.859Z,8.40
2022-11-29T18:20:52.906Z,8.40
2022-11-29T18:23:23.735Z,8.40
2022-11-29T18:26:00.269Z,8.40
2022-11-29T18:28:30.365Z,8.40
2022-11-29T18:31:08.097Z,8.40
2022-11-29T18:33:42.969Z,8.40
2022-11-29T18:36:19.168Z,8.40
2022-11-29T18:38:50.631Z,8.40
2022-11-29T18:41:26.633Z,8.40
2022-11-29T18:44:00.752Z,8.40
2022-11-29T18:46:34.590Z,8.40
2022-11-29T18:49:06.105Z,8.40
2022-11-29T18:51:49.782Z,8.30
2022-11-29T18:54:27.145Z,8.30
2022-11-29T18:56:56.921Z,8.30
2022-11-29T18:59:26.648Z,8.30
2022-11-29T19:01:57.215Z,8.30
2022-11-29T19:04:28.779Z,8.20
2022-11-29T19:07:02.594Z,8.20
2022-11-29T19:09:33.527Z,8.20
2022-11-29T19:12:04.160Z,8.20
2022-11-29T19:14:35.137Z,8.20
2022-11-29T19:17:07.744Z,8.20
2022-11-29T19:19:39.430Z,8.20
2022-11-29T19:22:08.972Z,8.20
2022-11-29T19:24:42.226Z,8.10
2022-11-29T19:27:11.290Z,8.10
2022-11-29T19:29:41.536Z,8.20
2022-11-29T19:32:10.865Z,8.20
2022-11-29T19:34:41.780Z,8.20
2022-11-29T19:37:18.760Z,8.20
2022-11-29T19:40:02.771Z,8.20
2022-11-29T19:42:32.271Z,8.30
2022-11-29T19:45:20.892Z,8.30
2022-11-29T19:47:55.122Z,8.20
2022-11-29T19:50:29.889Z,8.20
2022-11-29T19:52:59.745Z,8.20
2022-11-29T19:55:34.095Z,8.20
2022-11-29T19:58:04.569Z,8.20
2022-11-29T20:00:35.967Z,8.20
2022-11-29T20:03:10.624Z,8.10
2022-11-29T20:05:47.744Z,8.10
2022-11-29T20:08:21.278Z,8.10
2022-11-29T20:10:53.843Z,8.10
2022-11-29T20:13:29.414Z,8.10
2022-11-29T20:16:10.249Z,8.10
2022-11-29T20:18:48.740Z,8.10
2022-11-29T20:21:21.871Z,8.10
2022-11-29T20:23:51.782Z,8.10
2022-11-29T20:26:24.056Z,8.10
2022-11-29T20:28:55.656Z,8.10
2022-11-29T20:31:34.973Z,8.10
2022-11-29T20:34:07.638Z,8.10
2022-11-29T20:37:09.593Z,8.10
2022-11-29T20:39:45.108Z,8.10
2022-11-29T20:42:55.908Z,8.00
2022-11-29T20:45:32.461Z,8.10
2022-11-29T20:48:12.311Z,8.10
2022-11-29T20:50:52.704Z,8.10
2022-11-29T20:53:37.622Z,8.10
2022-11-29T20:56:15.247Z,8.10
2022-11-29T20:58:46.541Z,8.10
2022-11-29T21:01:15.976Z,8.00
2022-11-29T21:03:45.440Z,8.00
2022-11-29T21:06:15.070Z,8.10
2022-11-29T21:08:44.633Z,8.10
2022-11-29T21:11:16.546Z,8.10
2022-11-29T21:13:47.901Z,8.20
2022-11-29T21:16:17.633Z,8.10
2022-11-29T21:18:49.808Z,8.10
2022-11-29T21:21:26.398Z,8.10
2022-11-29T21:24:04.863Z,8.10
2022-11-29T21:26:41.950Z,8.10
2022-11-29T21:29:22.120Z,8.20
2022-11-29T21:31:52.706Z,8.10
2022-11-29T21:34:22.218Z,8.20
2022-11-29T21:36:59.476Z,8.20
2022-11-29T21:39:32.496Z,8.20
2022-11-29T21:42:01.814Z,8.20
2022-11-29T21:44:32.649Z,8.20
2022-11-29T21:47:01.813Z,8.10
2022-11-29T21:49:30.750Z,8.20
2022-11-29T21:52:01.468Z,8.20
2022-11-29T21:54:31.055Z,8.20
2022-11-29T21:57:03.588Z,8.20
2022-11-29T21:59:34.061Z,8.30
2022-11-29T22:02:03.454Z,8.30
2022-11-29T22:04:32.432Z,8.30
2022-11-29T22:07:01.978Z,8.30
2022-11-29T22:09:30.928Z,8.30
2022-11-29T22:11:59.730Z,8.30
2022-11-29T22:14:31.046Z,8.30
2022-11-29T22:17:03.216Z,8.30
2022-11-29T22:19:33.818Z,8.30
2022-11-29T22:22:04.155Z,8.30
2022-11-29T22:24:35.473Z,8.30
2022-11-29T22:27:05.160Z,8.30
2022-11-29T22:29:34.345Z,8.30
2022-11-29T22:32:04.788Z,8.30
2022-11-29T22:34:33.797Z,8.30
2022-11-29T22:37:03.432Z,8.30
2022-11-29T22:39:32.503Z,8.30
2022-11-29T22:42:01.230Z,8.30
2022-11-29T22:44:30.372Z,8.30
2022-11-29T22:46:59.561Z,8.30
2022-11-29T22:49:30.143Z,8.30
2022-11-29T22:52:15.273Z,8.30
2022-11-29T22:54:44.158Z,8.30
2022-11-29T22:57:12.908Z,8.30
2022-11-29T22:59:41.760Z,8.30
2022-11-29T23:02:10.936Z,8.30
2022-11-29T23:04:41.370Z,8.30
2022-11-29T23:07:11.228Z,8.30
2022-11-29T23:09:40.160Z,8.30
2022-11-29T23:12:09.049Z,8.30
2022-11-29T23:14:37.850Z,8.30
2022-11-29T23:17:06.713Z,8.30
2022-11-29T23:19:35.590Z,8.30
2022-11-29T23:22:06.057Z,8.30
2022-11-29T23:24:34.739Z,8.40
2022-11-29T23:27:05.610Z,8.40
2022-11-29T23:29:35.453Z,8.40
2022-11-29T23:32:05.058Z,8.40
2022-11-29T23:34:34.048Z,8.30
2022-11-29T23:37:02.807Z,8.40
2022-11-29T23:39:32.954Z,8.40
2022-11-29T23:42:01.837Z,8.40
2022-11-29T23:44:30.723Z,8.30
2022-11-29T23:46:59.478Z,8.30
2022-11-29T23:49:27.996Z,8.30
2022-11-29T23:51:57.079Z,8.30
2022-11-29T23:54:25.619Z,8.30
2022-11-29T23:56:55.651Z,8.30
2022-11-29T23:59:24.312Z,8.30
